РУС

ENG

 
  Pireps - S7
 

Рейс SBI1016

  • Выполнял: Anton Molchanov
  • Аэропорт отправления: Pulkovo Airport (ULLI)
  • Аэропорт назначения: Domodedovo Airport (UUDD)
  • Тип ВС: A320-214 (VQ-BDF)
  • Время полёта: 01.02
  • Дата полёта: 28.10.2020
  • Маршрут: SUGIN R904 KANET T576 NAMIN
  • Статус: Одобрен

Детали полёта
Gross Revenue:
(128 load / $ 150.00 per unit
$ 19, 200.00
Fuel Cost:
(3229 fuel used @ 5.1 / unit)
$ 16, 467.90


Дополнительная информация о полёте:

Лог

Aircraft Used in flight is Airbus A320 Sharklet - S7 Airlines VQ-BCF
20:11Flaps 3 Selected at 90ft and 0kts
20:11 Spoilers Armed
20:11 Boarding
20:11 Engine 1 Started
20:11 Engine 2 Started
20:11 Landing Lights ON at 90 AGL
20:11 Strobe Lights ON at 90 AGL
20:11 Navigation Lights ON at 90 AGL
20:11 Taxi Lights ON at 90 AGL
20:11 Beacon Lights ON at 90 AGL
20:11 Brakes are On
20:11 Brakes are Released
20:13 You Took off @ 164 Knots and Flaps at Position 3
Departure Weather
ULLI 281230Z 22003MPS 140V260 9999 BKN018 BKN040 10/06 Q1013 R28L/090060 NOSIG
20:13 Landing Gear Up @ 175 Knots and 150 Feet
20:13 Taxi Lights OFF at 170 AGL
20:14 Spoilers Disarmed
20:14Flaps 2 Selected at 1650ft and 188kts
20:14Flaps 1 Selected at 1960ft and 207kts
20:14Flaps Retracted at 1960ft and 207kts
20:16 You exceeded maximum bank angle
20:18 Landing Lights OFF at 10190 AGL
20:33 TOC Reached
21:01 Landing Lights ON at 9850 AGL
21:05Flaps 1 Selected at 5660ft and 222kts
21:09 Landing Gear Down @ 202 Knots and 2980 Feet
21:09 Spoilers Armed
21:09 Taxi Lights ON at 2710 AGL
21:09Flaps 2 Selected at 2520ft and 203kts
21:09Flaps 3 Selected at 2520ft and 203kts
21:09 Spoilers Disarmed
21:09Flaps 4 Selected at 2240ft and 178kts
21:10Flaps 5 Selected at 2160ft and 171kts
21:10 Spoilers Armed
21:12 You Landed @ 142 Knots and with -300 Vertical Speed
Arrival Weather
UUDD 281230Z 19005MPS 160V220 CAVOK 10/02 Q1023 R88/CLRD60 NOSIG
21:12 Spoilers Disarmed
21:13 Landing Lights OFF at 600 AGL
21:13 Brakes are On
Pirep logged with S7 Tracking 1.0.0.14


!!! Посадочные фары не выключены при наборе высоты с 5000 ft. до 10 000 ft.: -5%


Общая оценка полета : 95%




Route Map



 
 
   
 
Новости

03.09.2020 - Полеты в MFS 2020

Спешим сообщить вам, что теперь наш S7 Pad поддерживается для полетов в новом симуляторе MFS 2020. В разделе Загрузки вы найдете FSUIPC7.rar
Инструкция для запуска прилагается!

   
 
Авторизация






Регистрация

Восстановить пароль?

Мы в соц. сетях

      



   
 





   
 


   
 


Яндекс.Метрика

www.va-s7.ru 2011-2020
Все права защищены.



Минуточку внимания!
Сайт va-s7.ru не является коммерческим проектом. Мы не имеем отношения к торговым маркам "S7" и "Globus" и их представителям.
Эмблемы на сайте являются собственностью соответствующих компаний.

аэронавигационная метеорологическая и любая другая информация с данного ресурса ни в коем случае не должна использоваться для реальных полетов